20PN weather

Public forecast

Using degrees Fahrenheit for public forecast. Weather courtesy of forecast.io.

Closest aviation weather report (METAR) to Msd Landing Area Heliport

Closest report is Wings Field, 5.0 nm (9.2 km) SSE. Retrieved 2020/08/14 04:35 UTC (2 minutes ago):

KLOM 140435Z AUTO 00000KT 1SM BR BKN006 OVC011 21/21 A3007 RMK AO2 T02090209

Closest aviation forecast (TAF) to Msd Landing Area Heliport

Closest forecast is Northeast Philadelphia Airport, 15.8 nm (29.2 km) ESE. Retrieved 2020-08-14 00:22 UTC (4 hours ago):

TAF KPNE 132320Z 1400/1424 05005KT 4SM SHRA BR BKN025 OVC040 FM140300 VRB03KT 5SM BR SCT020 FM140600 VRB02KT 4SM BR SCT010 TEMPO 1408/1412 2SM BR OVC010 FM141300 06008KT P6SM BKN025 FM141600 07008KT P6SM SCT025 BKN080